Time;durP1;ratioP1;P1;durP2;ratioP2;P2;SDS_P1;SDS_P2;PMS_P1;PMS_P2;Temp;Humidity;BMP_temperature;BMP_pressure;BME280_temperature;BME280_humidity;BME280_pressure;Samples;Min_cycle;Max_cycle;Signal;HPM_P1;HPM_P2
2022/12/08 00:00:51;;;;;;;13.40;11.20;;;;;;;0.25;100.00;95717.66;5033141;28;20544;-74
2022/12/08 00:03:18;;;;;;;18.70;12.80;;;;;;;-0.02;100.00;95694.78;5030591;28;20437;-74
2022/12/08 00:11:19;;;;;;;18.90;13.93;;;;;;;0.23;100.00;95727.56;5041480;28;20454;-74
2022/12/08 00:13:45;;;;;;;16.93;13.43;;;;;;;0.03;100.00;95701.78;5031319;28;20502;-75
2022/12/08 00:16:12;;;;;;;16.33;11.97;;;;;;;-0.04;100.00;95691.69;5031377;28;20526;-74
2022/12/08 00:18:39;;;;;;;17.83;13.47;;;;;;;0.15;100.00;95691.81;5030294;28;20470;-74
2022/12/08 00:21:06;;;;;;;19.70;13.00;;;;;;;0.09;100.00;95698.84;5031761;28;20481;-74
2022/12/08 00:23:32;;;;;;;15.87;13.10;;;;;;;0.28;100.00;95724.94;5013539;28;20470;-73
2022/12/08 00:26:03;;;;;;;15.70;14.03;;;;;;;0.32;100.00;95723.31;5010576;28;20439;-74
2022/12/08 00:28:31;;;;;;;17.23;13.37;;;;;;;0.21;100.00;95717.44;5027806;28;20834;-73
2022/12/08 00:30:58;;;;;;;19.23;13.50;;;;;;;0.13;100.00;95697.25;5031596;28;20819;-73
2022/12/08 00:33:27;;;;;;;16.63;13.60;;;;;;;0.30;100.00;95715.03;5032048;28;20492;-74
2022/12/08 00:35:53;;;;;;;16.27;12.93;;;;;;;0.35;100.00;95725.38;5031564;28;20851;-74
2022/12/08 00:38:20;;;;;;;16.40;12.70;;;;;;;0.33;100.00;95717.06;5031555;28;20532;-74
2022/12/08 00:40:47;;;;;;;17.60;14.53;;;;;;;0.20;100.00;95692.50;5030077;28;20459;-74
2022/12/08 00:43:14;;;;;;;17.10;13.53;;;;;;;0.31;100.00;95718.41;5032123;28;20434;-75
2022/12/08 00:45:41;;;;;;;18.27;14.13;;;;;;;0.12;100.00;95698.31;5022139;28;20552;-75
2022/12/08 00:48:08;;;;;;;18.60;14.20;;;;;;;-0.18;100.00;95654.44;5030021;28;20438;-75
2022/12/08 00:50:35;;;;;;;16.53;13.03;;;;;;;-0.14;100.00;95664.00;5042660;28;20459;-75
2022/12/08 00:53:01;;;;;;;19.87;13.20;;;;;;;-0.02;100.00;95692.97;5031852;28;20512;-75
2022/12/08 00:55:28;;;;;;;19.97;14.27;;;;;;;0.00;100.00;95671.94;5030273;28;20449;-72
2022/12/08 00:57:55;;;;;;;18.00;13.57;;;;;;;0.18;100.00;95679.03;5029949;28;20974;-73
2022/12/08 01:00:21;;;;;;;18.00;14.37;;;;;;;0.00;100.00;95651.16;5029895;28;20497;-73
2022/12/08 01:02:48;;;;;;;17.17;14.70;;;;;;;0.26;100.00;95703.63;5031406;28;20429;-73
2022/12/08 01:05:15;;;;;;;17.07;14.67;;;;;;;0.35;100.00;95690.81;5029844;28;20934;-73
2022/12/08 01:07:41;;;;;;;17.53;14.00;;;;;;;0.33;100.00;95691.09;5030016;28;20799;-73
2022/12/08 01:10:08;;;;;;;18.37;13.73;;;;;;;0.32;100.00;95688.75;5013290;28;20528;-73
2022/12/08 01:12:35;;;;;;;19.47;13.73;;;;;;;0.25;100.00;95681.28;5010029;28;20497;-73
2022/12/08 01:15:02;;;;;;;19.97;14.73;;;;;;;0.56;100.00;95713.72;5023157;28;20433;-73
2022/12/08 01:17:29;;;;;;;17.67;14.27;;;;;;;0.28;100.00;95678.94;5029632;28;20465;-73
2022/12/08 01:19:56;;;;;;;19.17;12.60;;;;;;;0.22;100.00;95679.25;5029688;28;20457;-73
2022/12/08 01:22:23;;;;;;;16.80;13.80;;;;;;;0.34;100.00;95703.03;5029495;28;20875;-73
2022/12/08 01:24:50;;;;;;;24.07;16.60;;;;;;;0.16;100.00;95678.53;5030970;28;20436;-73
2022/12/08 01:27:17;;;;;;;20.70;13.60;;;;;;;0.16;100.00;95672.56;5030898;28;20434;-73
2022/12/08 01:29:43;;;;;;;17.20;13.87;;;;;;;0.27;100.00;95677.38;5029496;28;20543;-74
2022/12/08 01:32:10;;;;;;;18.80;15.07;;;;;;;0.50;100.00;95712.22;5013248;28;20907;-73
2022/12/08 01:34:36;;;;;;;22.83;16.83;;;;;;;0.44;100.00;95715.16;5026160;28;20433;-73
2022/12/08 01:37:03;;;;;;;23.00;14.67;;;;;;;0.07;100.00;95656.78;5029753;28;20457;-73
2022/12/08 01:39:30;;;;;;;16.40;13.03;;;;;;;0.33;100.00;95683.28;5013918;28;20443;-73
2022/12/08 01:41:56;;;;;;;18.77;13.90;;;;;;;0.42;100.00;95712.06;5046143;28;20549;-73
2022/12/08 01:44:23;;;;;;;20.70;15.33;;;;;;;0.43;100.00;95703.97;5043028;28;20902;-73
2022/12/08 01:46:52;;;;;;;19.67;15.30;;;;;;;0.40;100.00;95701.94;5042278;28;20944;-73
2022/12/08 01:49:28;;;;;;;22.77;17.33;;;;;;;0.17;100.00;95656.69;5022309;28;21009;-74
2022/12/08 01:51:57;;;;;;;21.90;15.60;;;;;;;0.14;100.00;95653.88;5033385;28;20909;-73
2022/12/08 01:54:28;;;;;;;18.07;13.93;;;;;;;0.46;100.00;95700.03;5034454;28;20427;-73
2022/12/08 01:57:03;;;;;;;23.17;15.80;;;;;;;0.21;100.00;95656.91;5033367;28;20946;-73
2022/12/08 01:59:33;;;;;;;22.10;15.10;;;;;;;0.40;100.00;95675.94;5033084;28;20430;-73
2022/12/08 02:01:59;;;;;;;23.73;15.40;;;;;;;0.02;100.00;95636.06;5032893;28;20450;-73
2022/12/08 02:04:26;;;;;;;23.10;15.17;;;;;;;0.40;100.00;95686.34;5032869;28;20867;-73
2022/12/08 02:06:53;;;;;;;19.47;14.60;;;;;;;0.40;100.00;95686.34;5033088;28;20996;-73
2022/12/08 02:09:21;;;;;;;21.60;14.17;;;;;;;0.34;100.00;95687.44;5034288;28;20441;-73
2022/12/08 02:11:50;;;;;;;19.07;13.80;;;;;;;0.26;100.00;95668.00;5032814;28;20504;-74
2022/12/08 02:14:17;;;;;;;20.17;13.97;;;;;;;0.09;100.00;95640.91;5032799;28;20547;-73
2022/12/08 02:16:56;;;;;;;16.80;14.30;;;;;;;0.24;100.00;95679.72;5032898;28;20491;-75
2022/12/08 02:19:47;;;;;;;21.27;13.87;;;;;;;0.34;100.00;95673.66;5033081;28;20864;-75
2022/12/08 02:22:26;;;;;;;24.07;14.60;;;;;;;0.33;100.00;95664.31;5032510;28;20504;-75
2022/12/08 02:25:02;;;;;;;20.13;14.87;;;;;;;0.33;100.00;95665.09;5033208;28;20484;-75
2022/12/08 02:27:29;;;;;;;19.50;14.43;;;;;;;0.28;100.00;95668.53;5045404;28;20472;-75
2022/12/08 02:30:14;;;;;;;22.17;15.63;;;;;;;0.34;100.00;95664.03;5015995;28;20434;-75
2022/12/08 02:32:57;;;;;;;22.67;14.87;;;;;;;0.35;100.00;95660.38;5032480;28;20851;-72
2022/12/08 02:35:33;;;;;;;21.20;14.73;;;;;;;0.32;100.00;95657.56;5019413;28;20442;-74
2022/12/08 02:38:43;;;;;;;20.80;14.33;;;;;;;0.36;100.00;95656.72;5015944;28;20430;-74
2022/12/08 02:41:26;;;;;;;19.20;14.00;;;;;;;0.32;100.00;95654.97;5031613;28;20462;-74
2022/12/08 02:44:16;;;;;;;20.80;15.00;;;;;;;0.39;100.00;95658.00;5038942;28;20441;-74
2022/12/08 02:46:51;;;;;;;23.27;15.13;;;;;;;0.19;100.00;95618.19;5021120;28;20981;-73
2022/12/08 02:49:17;;;;;;;26.10;16.20;;;;;;;0.32;100.00;95647.16;5033918;28;20418;-73
2022/12/08 02:51:44;;;;;;;24.37;16.30;;;;;;;0.24;100.00;95633.72;5031799;28;20453;-73
2022/12/08 02:54:11;;;;;;;17.47;12.37;;;;;;;0.13;100.00;95621.09;5032686;28;20470;-73
2022/12/08 02:56:38;;;;;;;14.73;11.57;;;;;;;0.29;100.00;95644.06;5033518;28;20463;-73
2022/12/08 02:59:10;;;;;;;23.73;15.17;;;;;;;0.29;100.00;95649.28;5034048;28;20436;-73
2022/12/08 03:02:12;;;;;;;18.90;14.27;;;;;;;0.34;100.00;95645.06;5044196;28;20469;-73
2022/12/08 03:04:45;;;;;;;23.83;15.50;;;;;;;0.33;100.00;95649.50;5013247;28;20434;-73
2022/12/08 03:07:22;;;;;;;20.37;13.83;;;;;;;0.37;100.00;95647.09;5015322;28;20525;-73
2022/12/08 03:10:24;;;;;;;16.17;12.77;;;;;;;0.25;100.00;95647.50;5033113;28;20418;-73
2022/12/08 03:12:57;;;;;;;15.83;12.40;;;;;;;0.25;100.00;95640.47;5013535;28;20989;-74
2022/12/08 03:15:24;;;;;;;19.80;13.20;;;;;;;-0.03;100.00;95587.50;5031843;28;20473;-73
2022/12/08 03:17:56;;;;;;;19.90;11.37;;;;;;;0.05;100.00;95598.34;5015442;28;20429;-73
2022/12/08 03:20:26;;;;;;;16.50;11.37;;;;;;;0.27;100.00;95637.63;5035769;28;20488;-74
2022/12/08 03:22:55;;;;;;;14.93;11.70;;;;;;;0.24;100.00;95628.53;5021173;28;20434;-73
2022/12/08 03:25:25;;;;;;;17.00;11.90;;;;;;;0.22;100.00;95633.22;5031340;28;20434;-73
2022/12/08 03:27:53;;;;;;;15.23;12.00;;;;;;;0.23;100.00;95626.97;5043027;28;20435;-73
2022/12/08 03:30:19;;;;;;;16.00;13.10;;;;;;;0.10;100.00;95599.06;5034343;28;20982;-73
2022/12/08 03:33:05;;;;;;;18.13;12.53;;;;;;;0.29;100.00;95620.69;5031314;28;20465;-73
2022/12/08 03:35:35;;;;;;;20.53;12.40;;;;;;;0.09;100.00;95591.53;5019109;28;20434;-73
2022/12/08 03:38:10;;;;;;;15.10;12.20;;;;;;;0.11;100.00;95599.84;5031322;28;20453;-73
2022/12/08 03:40:38;;;;;;;18.53;14.30;;;;;;;0.13;100.00;95603.69;5031282;28;20457;-73
2022/12/08 03:43:05;;;;;;;17.73;12.70;;;;;;;-0.11;100.00;95562.16;5014726;28;20432;-74
2022/12/08 03:45:32;;;;;;;15.90;12.80;;;;;;;0.25;100.00;95613.69;5051077;28;20488;-73
2022/12/08 03:47:59;;;;;;;19.37;12.43;;;;;;;0.18;100.00;95605.47;5036272;28;20441;-73
2022/12/08 03:50:26;;;;;;;20.10;12.20;;;;;;;0.23;100.00;95608.78;5031042;28;20458;-73
2022/12/08 03:52:53;;;;;;;17.53;14.70;;;;;;;0.09;100.00;95599.34;5014507;28;20470;-73
2022/12/08 03:55:20;;;;;;;15.27;11.27;;;;;;;0.11;100.00;95597.22;5030830;28;20434;-73
2022/12/08 03:57:47;;;;;;;21.00;14.37;;;;;;;0.20;100.00;95611.16;5032146;28;20764;-73
2022/12/08 04:00:15;;;;;;;17.87;12.40;;;;;;;0.24;100.00;95604.34;5030788;28;20494;-73
2022/12/08 04:02:42;;;;;;;14.27;11.50;;;;;;;0.04;100.00;95578.63;5034052;28;20438;-73
2022/12/08 04:05:09;;;;;;;16.90;12.20;;;;;;;-0.04;100.00;95567.00;5050687;28;20432;-73
2022/12/08 04:07:35;;;;;;;16.97;13.13;;;;;;;0.25;100.00;95609.28;5032963;28;20434;-73
2022/12/08 04:10:03;;;;;;;15.53;11.70;;;;;;;0.21;100.00;95599.72;5041651;28;20441;-73
2022/12/08 04:12:30;;;;;;;14.60;12.13;;;;;;;0.21;100.00;95602.31;5050453;28;20800;-73
2022/12/08 04:14:57;;;;;;;17.83;13.17;;;;;;;-0.11;100.00;95559.56;5022753;28;20442;-73
2022/12/08 04:17:23;;;;;;;13.97;10.63;;;;;;;0.16;100.00;95600.56;5036453;28;20537;-73
2022/12/08 04:19:50;;;;;;;15.97;13.33;;;;;;;0.11;100.00;95598.00;5050371;28;20472;-73
2022/12/08 04:22:17;;;;;;;13.87;10.57;;;;;;;0.17;100.00;95591.72;5031906;28;20541;-73
2022/12/08 04:24:43;;;;;;;17.10;13.10;;;;;;;0.08;100.00;95582.97;5031793;28;20594;-73
2022/12/08 04:27:10;;;;;;;18.17;11.00;;;;;;;-0.19;100.00;95551.59;5031579;28;20433;-73
2022/12/08 04:29:37;;;;;;;32.50;23.53;;;;;;;0.04;100.00;95579.38;5030258;28;20958;-74
2022/12/08 04:32:04;;;;;;;17.57;12.20;;;;;;;-0.13;100.00;95553.09;5030363;28;20470;-74
2022/12/08 04:34:30;;;;;;;15.60;12.67;;;;;;;0.05;100.00;95588.72;5014173;28;20465;-73
2022/12/08 04:36:57;;;;;;;15.77;12.77;;;;;;;-0.31;100.00;95534.56;5031786;28;20787;-73
2022/12/08 04:39:24;;;;;;;20.10;15.17;;;;;;;-0.03;100.00;95579.72;5030284;28;20472;-73
2022/12/08 04:41:50;;;;;;;17.60;13.27;;;;;;;-0.04;100.00;95565.19;5031711;28;20457;-73
2022/12/08 04:44:17;;;;;;;13.97;11.93;;;;;;;-0.05;100.00;95566.22;5023340;28;20945;-73
2022/12/08 04:46:44;;;;;;;18.07;12.50;;;;;;;-0.12;100.00;95572.81;5029957;28;20438;-73
2022/12/08 04:49:10;;;;;;;13.20;11.80;;;;;;;-0.54;100.00;95517.16;5043142;28;20839;-73
2022/12/08 04:51:37;;;;;;;12.43;7.57;;;;;;;-0.19;100.00;95565.34;5017900;28;20446;-73
2022/12/08 04:54:04;;;;;;;15.23;10.57;;;;;;;-0.14;100.00;95570.47;5031490;28;20457;-73
2022/12/08 04:56:31;;;;;;;13.83;9.90;;;;;;;-0.26;100.00;95551.94;5013720;28;20851;-73
2022/12/08 04:58:57;;;;;;;14.97;11.10;;;;;;;-0.36;100.00;95537.22;5031133;28;20870;-73
2022/12/08 05:01:24;;;;;;;15.57;9.30;;;;;;;-0.29;100.00;95544.69;5016609;28;20442;-73
2022/12/08 05:03:51;;;;;;;14.50;10.83;;;;;;;-0.13;100.00;95566.84;5029737;28;20950;-73
2022/12/08 05:06:18;;;;;;;14.13;11.83;;;;;;;-0.37;100.00;95527.13;5013464;28;20447;-73
2022/12/08 05:08:44;;;;;;;17.97;12.37;;;;;;;-0.25;100.00;95540.50;5013397;28;20442;-73
2022/12/08 05:11:12;;;;;;;11.00;8.57;;;;;;;-0.07;100.00;95570.16;5013406;28;20455;-73
2022/12/08 05:13:39;;;;;;;21.20;14.93;;;;;;;-0.11;100.00;95572.53;5029420;28;20832;-73
2022/12/08 05:16:09;;;;;;;18.80;10.63;;;;;;;-0.14;100.00;95573.06;5013553;28;20440;-73
2022/12/08 05:18:37;;;;;;;12.70;9.50;;;;;;;-0.17;100.00;95571.03;5029434;28;20486;-73
2022/12/08 05:21:05;;;;;;;16.97;11.20;;;;;;;-0.17;100.00;95570.25;5029377;28;20559;-73
2022/12/08 05:23:32;;;;;;;16.97;13.10;;;;;;;-0.41;100.00;95537.25;5030721;28;20445;-73
2022/12/08 05:25:59;;;;;;;16.87;10.90;;;;;;;-0.39;100.00;95534.41;5029638;28;20533;-73
2022/12/08 05:28:25;;;;;;;15.17;9.07;;;;;;;-0.38;100.00;95539.31;5013080;28;20434;-73
2022/12/08 05:31:11;;;;;;;16.93;10.87;;;;;;;-0.35;100.00;95545.78;5029499;28;20815;-73
2022/12/08 05:33:38;;;;;;;12.23;10.37;;;;;;;-0.41;100.00;95526.09;5030484;28;20466;-73
2022/12/08 05:36:05;;;;;;;12.70;9.37;;;;;;;-0.28;100.00;95554.00;5029571;28;20448;-73
2022/12/08 05:38:32;;;;;;;16.00;12.07;;;;;;;-0.13;100.00;95574.66;5029194;28;20441;-73
2022/12/08 05:40:59;;;;;;;14.93;12.20;;;;;;;-0.22;100.00;95572.94;5029278;28;21202;-73
2022/12/08 05:43:25;;;;;;;16.40;11.77;;;;;;;-0.16;100.00;95584.78;5035663;28;20448;-73
2022/12/08 05:45:52;;;;;;;13.43;10.17;;;;;;;-0.25;100.00;95560.50;5036072;28;20434;-73
2022/12/08 05:48:19;;;;;;;14.13;9.97;;;;;;;-0.18;100.00;95571.31;5036790;28;20436;-73
2022/12/08 05:50:47;;;;;;;11.63;10.13;;;;;;;-0.29;100.00;95557.66;5036165;28;20833;-73
2022/12/08 05:53:14;;;;;;;13.03;9.30;;;;;;;-0.47;100.00;95537.59;5012671;28;20442;-73
2022/12/08 05:55:41;;;;;;;17.73;10.43;;;;;;;-0.47;100.00;95550.59;5031021;28;20915;-73
2022/12/08 05:58:12;;;;;;;12.43;8.80;;;;;;;-0.33;100.00;95569.66;5012999;28;20454;-73
2022/12/08 06:00:39;;;;;;;13.13;10.07;;;;;;;-0.54;100.00;95526.75;5043588;28;20442;-72
2022/12/08 06:03:08;;;;;;;18.27;12.80;;;;;;;-0.32;100.00;95558.22;5029095;28;21025;-73
2022/12/08 06:05:35;;;;;;;18.93;11.77;;;;;;;-0.54;100.00;95521.56;5030547;28;20832;-73
2022/12/08 06:08:02;;;;;;;16.43;11.87;;;;;;;-0.53;100.00;95529.09;5029205;28;20446;-72
2022/12/08 06:10:29;;;;;;;13.00;9.60;;;;;;;-0.28;100.00;95563.63;5030380;28;20858;-73
2022/12/08 06:12:55;;;;;;;12.60;9.67;;;;;;;-0.42;100.00;95533.13;5029252;28;20438;-73
2022/12/08 06:15:22;;;;;;;12.37;10.70;;;;;;;-0.39;100.00;95534.41;5012614;28;20976;-73
2022/12/08 06:17:49;;;;;;;12.97;10.43;;;;;;;-0.15;100.00;95562.97;5029573;28;20464;-73
2022/12/08 06:20:18;;;;;;;12.90;9.90;;;;;;;-0.29;100.00;95549.88;5029191;28;20478;-73
2022/12/08 06:22:44;;;;;;;18.77;10.00;;;;;;;-0.25;100.00;95548.28;5029320;28;20438;-73
2022/12/08 06:25:11;;;;;;;13.90;9.90;;;;;;;-0.26;100.00;95549.34;5029314;28;20442;-73
2022/12/08 06:27:38;;;;;;;11.40;8.77;;;;;;;-0.28;100.00;95551.41;5016142;28;20533;-73
2022/12/08 06:30:05;;;;;;;15.13;11.73;;;;;;;-0.02;100.00;95570.88;5034127;28;21229;-73
2022/12/08 06:32:32;;;;;;;16.97;10.90;;;;;;;-0.04;100.00;95577.41;5032913;28;20434;-73
2022/12/08 06:34:59;;;;;;;15.43;10.53;;;;;;;-0.21;100.00;95548.50;5032766;28;20457;-73
2022/12/08 06:37:26;;;;;;;12.17;9.50;;;;;;;-0.10;100.00;95575.91;5033141;28;20473;-73
2022/12/08 06:39:52;;;;;;;13.23;10.67;;;;;;;-0.26;100.00;95544.16;5034087;28;20431;-73
2022/12/08 06:45:05;;;;;;;14.10;10.30;;;;;;;-0.04;100.00;95543.63;5047510;28;20867;-73
2022/12/08 06:47:34;;;;;;;13.30;11.30;;;;;;;-0.19;100.00;95530.81;5032685;28;20557;-72
2022/12/08 06:50:01;;;;;;;16.53;10.30;;;;;;;-0.17;100.00;95544.28;5015877;28;20438;-73
2022/12/08 06:52:28;;;;;;;15.13;11.60;;;;;;;-0.29;100.00;95534.28;5032783;28;20476;-73
2022/12/08 06:54:55;;;;;;;14.17;11.90;;;;;;;-0.37;100.00;95524.53;5016927;28;20457;-73
2022/12/08 06:57:23;;;;;;;17.20;11.37;;;;;;;-0.10;100.00;95571.50;5016718;28;20465;-72
2022/12/08 06:59:49;;;;;;;17.10;11.50;;;;;;;-0.19;100.00;95554.97;5033609;28;20430;-72
2022/12/08 07:02:16;;;;;;;15.63;11.50;;;;;;;-0.34;100.00;95534.34;5053136;28;20442;-73
2022/12/08 07:04:43;;;;;;;15.53;11.10;;;;;;;-0.12;100.00;95568.41;5046078;28;20442;-73
2022/12/08 07:07:09;;;;;;;15.03;10.77;;;;;;;-0.12;100.00;95557.25;5017482;28;20836;-73
2022/12/08 07:09:36;;;;;;;14.10;11.30;;;;;;;-0.21;100.00;95551.88;5033729;28;20430;-73
2022/12/08 07:12:03;;;;;;;16.77;12.77;;;;;;;-0.16;100.00;95575.19;5035221;28;20473;-73
2022/12/08 07:14:30;;;;;;;13.30;11.57;;;;;;;-0.27;100.00;95555.56;5033461;28;20500;-72
2022/12/08 07:16:56;;;;;;;13.77;10.00;;;;;;;-0.66;100.00;95480.44;5016183;28;20467;-75
2022/12/08 07:19:23;;;;;;;23.37;16.50;;;;;;;-0.35;100.00;95543.97;5017899;28;20438;-75
2022/12/08 07:21:50;;;;;;;23.60;19.00;;;;;;;-0.19;100.00;95577.56;5036671;28;20468;-74
2022/12/08 07:24:17;;;;;;;20.50;17.57;;;;;;;-0.25;100.00;95557.91;5020123;28;20431;-74
2022/12/08 07:26:43;;;;;;;42.03;34.67;;;;;;;-0.42;100.00;95540.13;5038358;28;20450;-74
2022/12/08 07:29:10;;;;;;;30.73;26.90;;;;;;;-0.04;100.00;95583.38;5035249;28;20891;-74
2022/12/08 07:31:37;;;;;;;16.43;12.77;;;;;;;-0.24;100.00;95552.44;5016835;28;20472;-75
2022/12/08 07:34:03;;;;;;;13.80;11.50;;;;;;;-0.35;100.00;95553.59;5034604;28;20462;-74
2022/12/08 07:36:31;;;;;;;17.50;11.47;;;;;;;-0.12;100.00;95575.44;5033078;28;20509;-74
2022/12/08 07:38:58;;;;;;;14.40;10.37;;;;;;;-0.64;100.00;95489.50;5041375;28;20433;-74
2022/12/08 07:41:25;;;;;;;13.43;11.80;;;;;;;-0.22;100.00;95575.53;5036217;28;20450;-75
2022/12/08 07:43:52;;;;;;;14.57;10.27;;;;;;;-0.35;100.00;95545.78;5043254;28;20421;-74
2022/12/08 07:46:21;;;;;;;14.13;11.37;;;;;;;-0.30;100.00;95561.31;5040414;28;20889;-74
2022/12/08 07:48:48;;;;;;;15.83;11.53;;;;;;;-0.34;100.00;95552.53;5032551;28;20947;-74
2022/12/08 07:51:16;;;;;;;22.50;13.57;;;;;;;-0.08;100.00;95582.38;5050324;28;20552;-75
2022/12/08 07:53:44;;;;;;;15.00;10.40;;;;;;;-0.08;100.00;95579.78;5042890;28;20450;-74
2022/12/08 07:56:19;;;;;;;15.40;12.60;;;;;;;-0.31;100.00;95546.78;5037986;28;20432;-74
2022/12/08 07:58:46;;;;;;;17.30;10.50;;;;;;;-0.23;100.00;95550.59;5026079;28;20430;-76
2022/12/08 08:01:29;;;;;;;15.07;10.80;;;;;;;-0.17;100.00;95580.66;5017308;28;20461;-76
2022/12/08 08:04:00;;;;;;;13.63;11.70;;;;;;;-0.23;100.00;95559.16;5036957;28;20423;-75
2022/12/08 08:06:27;;;;;;;13.90;11.10;;;;;;;-0.19;100.00;95559.38;5034495;28;20430;-75
2022/12/08 08:08:54;;;;;;;20.50;10.87;;;;;;;-0.33;100.00;95543.69;5033070;28;20476;-75
2022/12/08 08:11:21;;;;;;;15.60;11.30;;;;;;;-0.16;100.00;95572.59;5016741;28;20450;-75
2022/12/08 08:13:49;;;;;;;17.93;12.17;;;;;;;-0.16;100.00;95582.97;5034411;28;20448;-75
2022/12/08 08:16:16;;;;;;;18.40;13.50;;;;;;;-0.11;100.00;95576.97;5033385;28;20438;-75
2022/12/08 08:18:45;;;;;;;14.53;11.73;;;;;;;-0.34;100.00;95548.09;5033689;28;20430;-75
2022/12/08 08:21:12;;;;;;;22.80;13.10;;;;;;;-0.15;100.00;95579.31;5032913;28;20462;-76
2022/12/08 08:23:59;;;;;;;18.37;12.67;;;;;;;-0.18;100.00;95573.91;5034341;28;21004;-76
2022/12/08 08:26:25;;;;;;;20.50;12.53;;;;;;;-0.32;100.00;95550.44;5031777;28;20446;-76
2022/12/08 08:28:52;;;;;;;20.53;14.50;;;;;;;-0.25;100.00;95539.72;5016158;28;20444;-76
2022/12/08 08:31:24;;;;;;;19.90;13.67;;;;;;;-0.23;100.00;95541.00;5031446;28;20454;-76
2022/12/08 08:33:50;;;;;;;17.60;12.13;;;;;;;-0.08;100.00;95571.97;5019384;28;20492;-74
2022/12/08 08:36:17;;;;;;;15.17;11.90;;;;;;;-0.14;100.00;95554.13;5032354;28;20461;-74
2022/12/08 08:38:44;;;;;;;15.80;11.70;;;;;;;-0.14;100.00;95554.13;5033008;28;20426;-74
2022/12/08 08:41:10;;;;;;;14.60;11.03;;;;;;;-0.12;100.00;95563.22;5032058;28;20442;-74
2022/12/08 08:43:37;;;;;;;14.60;10.47;;;;;;;-0.20;100.00;95557.84;5017546;28;20473;-74
2022/12/08 08:46:05;;;;;;;12.57;10.60;;;;;;;0.02;100.00;95576.31;5024444;28;20426;-73
2022/12/08 08:48:32;;;;;;;13.57;11.17;;;;;;;-0.01;100.00;95562.03;5041233;28;20883;-74
2022/12/08 08:51:07;;;;;;;22.27;11.47;;;;;;;0.20;100.00;95585.97;5056582;28;21325;-74
2022/12/08 08:53:34;;;;;;;15.30;11.80;;;;;;;0.21;100.00;95582.31;5049574;28;20481;-74
2022/12/08 08:56:03;;;;;;;19.20;11.60;;;;;;;0.09;100.00;95568.16;5048920;28;20537;-74
2022/12/08 08:58:30;;;;;;;197.87;104.27;;;;;;;-0.03;100.00;95560.75;5032217;28;20473;-74
2022/12/08 09:00:57;;;;;;;114.67;64.20;;;;;;;-0.05;100.00;95549.88;5061290;28;20465;-74
2022/12/08 09:03:26;;;;;;;107.70;63.33;;;;;;;-0.13;100.00;95525.31;5044868;28;20435;-74
2022/12/08 09:05:54;;;;;;;110.50;72.73;;;;;;;0.10;100.00;95569.69;5035506;28;20430;-74
2022/12/08 09:08:22;;;;;;;16.23;13.97;;;;;;;0.05;100.00;95577.56;5041906;28;20434;-75
2022/12/08 09:10:49;;;;;;;14.23;12.10;;;;;;;-0.12;100.00;95550.22;5035003;28;20465;-75
2022/12/08 09:13:16;;;;;;;15.13;11.60;;;;;;;-0.27;100.00;95523.63;5031972;28;20434;-75
2022/12/08 09:15:43;;;;;;;12.70;11.43;;;;;;;0.12;100.00;95580.59;5033406;28;20894;-75
2022/12/08 09:18:13;;;;;;;11.00;9.27;;;;;;;0.06;100.00;95577.28;5031788;28;20465;-75
2022/12/08 09:20:39;;;;;;;16.17;11.73;;;;;;;0.03;100.00;95564.09;5032560;28;20458;-75
2022/12/08 09:23:06;;;;;;;12.83;10.37;;;;;;;0.10;100.00;95565.28;5033186;28;20469;-75
2022/12/08 09:25:33;;;;;;;15.60;11.47;;;;;;;-0.07;100.00;95546.78;5035105;28;20457;-75
2022/12/08 09:27:59;;;;;;;14.87;10.57;;;;;;;-0.07;100.00;95544.19;5024068;28;20445;-75
2022/12/08 09:30:26;;;;;;;15.23;10.97;;;;;;;0.14;100.00;95562.91;5040079;28;20557;-75
2022/12/08 09:32:52;;;;;;;15.10;10.27;;;;;;;0.04;100.00;95550.03;5038003;28;20432;-74
2022/12/08 09:35:19;;;;;;;12.00;10.67;;;;;;;0.04;100.00;95552.63;5026367;28;20537;-74
2022/12/08 09:37:46;;;;;;;15.50;10.10;;;;;;;0.19;100.00;95583.63;5044436;28;20998;-74
2022/12/08 09:40:17;;;;;;;16.43;11.57;;;;;;;0.29;100.00;95588.72;5042306;28;20461;-76
2022/12/08 09:42:51;;;;;;;17.90;11.47;;;;;;;0.27;100.00;95583.81;5041271;28;20509;-75
2022/12/08 09:45:19;;;;;;;31.80;20.20;;;;;;;-0.10;100.00;95536.94;5047278;28;20433;-75
2022/12/08 09:47:59;;;;;;;29.10;23.27;;;;;;;0.18;100.00;95575.06;5022961;28;20524;-75
2022/12/08 09:50:45;;;;;;;14.27;11.50;;;;;;;0.03;100.00;95546.66;5045479;28;20521;-75
2022/12/08 09:53:21;;;;;;;17.77;12.03;;;;;;;0.21;100.00;95573.72;5037744;28;20430;-75
2022/12/08 09:55:51;;;;;;;16.20;12.00;;;;;;;-0.05;100.00;95539.47;5029795;28;20469;-75
2022/12/08 09:58:31;;;;;;;12.10;10.00;;;;;;;0.04;100.00;95545.63;5043847;28;20436;-75
2022/12/08 10:00:58;;;;;;;15.00;9.93;;;;;;;0.18;100.00;95546.47;5040266;28;20549;-75
2022/12/08 10:03:28;;;;;;;10.60;9.50;;;;;;;0.04;100.00;95531.84;5023957;28;20984;-75
2022/12/08 10:06:10;;;;;;;10.97;9.73;;;;;;;0.21;100.00;95558.13;5034652;28;20441;-75
2022/12/08 10:09:02;;;;;;;11.50;8.67;;;;;;;0.27;100.00;95560.41;5035800;28;20425;-76
2022/12/08 10:11:38;;;;;;;13.03;9.60;;;;;;;0.14;100.00;95526.53;5024525;28;20466;-76
2022/12/08 10:14:32;;;;;;;14.33;10.60;;;;;;;0.37;100.00;95543.13;5033789;28;20520;-75
2022/12/08 10:17:10;;;;;;;14.27;11.10;;;;;;;0.39;100.00;95538.41;5017823;28;20481;-75
2022/12/08 10:19:39;;;;;;;14.00;11.90;;;;;;;0.27;100.00;95507.66;5034052;28;20493;-75
2022/12/08 10:22:34;;;;;;;13.80;10.67;;;;;;;0.52;100.00;95538.47;5033836;28;20483;-75
2022/12/08 10:25:21;;;;;;;12.40;10.47;;;;;;;0.50;100.00;95538.00;5032190;28;20444;-75
2022/12/08 10:27:50;;;;;;;13.33;9.40;;;;;;;0.39;100.00;95546.22;5033485;28;20926;-76
2022/12/08 10:30:20;;;;;;;10.73;9.23;;;;;;;0.35;100.00;95533.00;5016749;28;20462;-75
2022/12/08 10:32:52;;;;;;;9.80;8.10;;;;;;;0.26;100.00;95522.44;5034950;28;20461;-75
2022/12/08 10:35:21;;;;;;;15.50;9.57;;;;;;;0.42;100.00;95533.44;5034209;28;20561;-75
2022/12/08 10:37:59;;;;;;;12.93;9.77;;;;;;;0.60;100.00;95534.47;5033784;28;20433;-75
2022/12/08 10:40:28;;;;;;;12.63;9.40;;;;;;;0.62;100.00;95534.97;5022005;28;20476;-75
2022/12/08 10:42:57;;;;;;;15.40;10.27;;;;;;;0.57;100.00;95522.81;5034523;28;20426;-75
2022/12/08 10:45:36;;;;;;;14.00;11.23;;;;;;;0.60;100.00;95526.69;5029526;28;20521;-76
2022/12/08 10:48:12;;;;;;;11.37;8.77;;;;;;;0.32;100.00;95478.97;5034567;28;20429;-76
2022/12/08 10:50:54;;;;;;;15.20;9.10;;;;;;;0.60;100.00;95516.28;5034499;28;21045;-75
2022/12/08 10:53:29;;;;;;;22.97;12.67;;;;;;;0.62;100.00;95513.41;5021997;28;20453;-76
2022/12/08 10:56:02;;;;;;;17.60;11.50;;;;;;;0.70;100.00;95512.75;5034410;28;20458;-76
2022/12/08 10:58:29;;;;;;;16.07;11.20;;;;;;;0.65;100.00;95511.00;5033150;28;20424;-76
2022/12/08 11:01:05;;;;;;;16.23;11.87;;;;;;;0.76;100.00;95503.81;5034646;28;20595;-76
2022/12/08 11:03:38;;;;;;;14.83;9.70;;;;;;;0.57;100.00;95478.63;5034684;28;20589;-75
2022/12/08 11:06:13;;;;;;;11.90;9.50;;;;;;;0.91;100.00;95503.56;5034395;28;20441;-75
2022/12/08 11:08:52;;;;;;;12.23;9.33;;;;;;;0.91;100.00;95505.41;5032536;28;20442;-75
2022/12/08 11:11:21;;;;;;;11.33;8.90;;;;;;;0.87;100.00;95495.56;5033931;28;20438;-74
2022/12/08 11:13:55;;;;;;;23.60;15.03;;;;;;;0.78;100.00;95467.88;5032750;28;20450;-76
2022/12/08 11:16:22;;;;;;;15.30;10.10;;;;;;;0.86;100.00;95462.81;5032402;28;20617;-76
2022/12/08 11:18:56;;;;;;;11.60;8.90;;;;;;;1.17;100.00;95485.72;5017176;28;20431;-76
2022/12/08 11:21:35;;;;;;;9.50;8.37;;;;;;;1.09;100.00;95489.00;5046737;28;21096;-76
2022/12/08 11:24:14;;;;;;;11.93;8.17;;;;;;;1.09;100.00;95484.56;5023576;28;20484;-76
2022/12/08 11:26:50;;;;;;;10.43;9.17;;;;;;;1.05;100.00;95464.56;5034412;28;20457;-76
2022/12/08 11:29:16;;;;;;;9.33;8.47;;;;;;;1.12;100.00;95480.59;5026133;28;20460;-76
2022/12/08 11:31:48;;;;;;;29.43;17.80;;;;;;;0.95;100.00;95447.31;5035816;28;20541;-76
2022/12/08 11:34:25;;;;;;;9.10;7.90;;;;;;;0.96;100.00;95445.50;5016352;28;20431;-76